createdAt,value
2022-10-26T00:02:01.282Z,100.00
2022-10-26T00:04:28.808Z,100.00
2022-10-26T00:06:56.172Z,100.00
2022-10-26T00:09:23.752Z,100.00
2022-10-26T00:11:53.002Z,100.00
2022-10-26T00:14:20.424Z,100.00
2022-10-26T00:16:47.832Z,100.00
2022-10-26T00:19:15.188Z,100.00
2022-10-26T00:21:42.589Z,100.00
2022-10-26T00:24:11.159Z,100.00
2022-10-26T00:26:38.573Z,100.00
2022-10-26T00:29:07.324Z,100.00
2022-10-26T00:31:35.020Z,100.00
2022-10-26T00:34:02.369Z,100.00
2022-10-26T00:36:29.734Z,100.00
2022-10-26T00:38:58.873Z,100.00
2022-10-26T00:41:27.792Z,100.00
2022-10-26T00:43:55.609Z,100.00
2022-10-26T00:46:26.877Z,100.00
2022-10-26T00:48:56.503Z,100.00
2022-10-26T00:51:26.764Z,100.00
2022-10-26T00:53:55.276Z,100.00
2022-10-26T00:56:22.859Z,100.00
2022-10-26T00:58:50.328Z,100.00
2022-10-26T01:01:17.817Z,100.00
2022-10-26T01:03:46.663Z,100.00
2022-10-26T01:06:14.676Z,100.00
2022-10-26T01:08:43.148Z,100.00
2022-10-26T01:11:10.968Z,100.00
2022-10-26T01:13:38.505Z,100.00
2022-10-26T01:16:20.861Z,100.00
2022-10-26T01:18:56.109Z,100.00
2022-10-26T01:21:40.440Z,100.00
2022-10-26T01:24:17.986Z,100.00
2022-10-26T01:26:53.598Z,100.00
2022-10-26T01:29:51.246Z,100.00
2022-10-26T01:32:24.433Z,100.00
2022-10-26T01:34:55.112Z,100.00
2022-10-26T01:37:25.464Z,100.00
2022-10-26T01:39:55.336Z,100.00
2022-10-26T01:42:23.617Z,100.00
2022-10-26T01:44:54.673Z,100.00
2022-10-26T01:47:24.442Z,100.00
2022-10-26T01:49:54.821Z,100.00
2022-10-26T01:52:22.540Z,100.00
2022-10-26T01:54:49.880Z,100.00
2022-10-26T01:57:19.861Z,100.00
2022-10-26T02:00:02.373Z,100.00
2022-10-26T02:03:01.558Z,100.00
2022-10-26T02:05:56.664Z,100.00
2022-10-26T02:08:31.836Z,100.00
2022-10-26T02:11:07.645Z,100.00
2022-10-26T02:13:42.450Z,100.00
2022-10-26T02:16:17.704Z,100.00
2022-10-26T02:18:51.107Z,100.00
2022-10-26T02:21:21.677Z,100.00
2022-10-26T02:23:50.073Z,100.00
2022-10-26T02:26:19.210Z,100.00
2022-10-26T02:28:49.405Z,100.00
2022-10-26T02:31:17.445Z,100.00
2022-10-26T02:36:25.064Z,100.00
2022-10-26T02:38:53.240Z,100.00
2022-10-26T02:41:21.214Z,100.00
2022-10-26T02:43:53.366Z,100.00
2022-10-26T02:46:22.654Z,100.00
2022-10-26T02:48:51.368Z,100.00
2022-10-26T02:51:21.344Z,100.00
2022-10-26T02:53:51.258Z,100.00
2022-10-26T02:56:22.449Z,100.00
2022-10-26T02:58:52.865Z,100.00
2022-10-26T03:01:20.232Z,100.00
2022-10-26T03:03:47.725Z,100.00
2022-10-26T03:06:23.068Z,100.00
2022-10-26T03:08:50.629Z,100.00
2022-10-26T03:11:18.162Z,100.00
2022-10-26T03:13:45.577Z,100.00
2022-10-26T03:16:12.990Z,100.00
2022-10-26T03:18:40.312Z,100.00
2022-10-26T03:21:07.641Z,100.00
2022-10-26T03:23:36.334Z,100.00
2022-10-26T03:26:03.740Z,100.00
2022-10-26T03:28:31.931Z,100.00
2022-10-26T03:30:59.538Z,100.00
2022-10-26T03:33:27.870Z,100.00
2022-10-26T03:35:56.618Z,100.00
2022-10-26T03:38:24.480Z,100.00
2022-10-26T03:40:55.038Z,100.00
2022-10-26T03:43:22.427Z,100.00
2022-10-26T03:45:49.809Z,100.00
2022-10-26T03:48:17.208Z,100.00
2022-10-26T03:50:44.550Z,100.00
2022-10-26T03:53:11.924Z,100.00
2022-10-26T03:55:39.321Z,100.00
2022-10-26T03:58:08.014Z,100.00
2022-10-26T04:00:35.368Z,100.00
2022-10-26T04:03:04.832Z,100.00
2022-10-26T04:05:32.317Z,100.00
2022-10-26T04:08:02.941Z,100.00
2022-10-26T04:10:30.773Z,100.00
2022-10-26T04:13:00.133Z,100.00
2022-10-26T04:15:29.474Z,100.00
2022-10-26T04:17:57.708Z,100.00
2022-10-26T04:20:25.686Z,100.00
2022-10-26T04:23:00.001Z,100.00
2022-10-26T04:25:30.121Z,100.00
2022-10-26T04:28:00.207Z,100.00
2022-10-26T04:30:28.901Z,100.00
2022-10-26T04:32:56.322Z,100.00
2022-10-26T04:35:23.663Z,100.00
2022-10-26T04:37:51.049Z,100.00
2022-10-26T04:40:18.381Z,100.00
2022-10-26T04:42:47.778Z,100.00
2022-10-26T04:45:17.376Z,100.00
2022-10-26T04:47:46.034Z,100.00
2022-10-26T04:50:14.516Z,100.00
2022-10-26T04:52:42.118Z,100.00
2022-10-26T04:55:09.642Z,100.00
2022-10-26T04:57:37.139Z,100.00
2022-10-26T05:00:06.437Z,100.00
2022-10-26T05:02:33.805Z,100.00
2022-10-26T05:07:30.804Z,100.00
2022-10-26T05:09:58.347Z,100.00
2022-10-26T05:12:25.933Z,100.00
2022-10-26T05:14:58.881Z,100.00
2022-10-26T05:17:26.319Z,100.00
2022-10-26T05:19:55.510Z,100.00
2022-10-26T05:22:24.576Z,100.00
2022-10-26T05:24:51.958Z,100.00
2022-10-26T05:27:19.456Z,100.00
2022-10-26T05:29:46.886Z,100.00
2022-10-26T05:32:16.848Z,100.00
2022-10-26T05:34:44.193Z,100.00
2022-10-26T05:37:11.493Z,100.00
2022-10-26T05:39:40.200Z,100.00
2022-10-26T05:42:07.649Z,100.00
2022-10-26T05:44:35.001Z,100.00
2022-10-26T05:47:02.373Z,100.00
2022-10-26T05:49:29.760Z,100.00
2022-10-26T05:51:58.380Z,100.00
2022-10-26T05:54:25.748Z,100.00
2022-10-26T05:56:55.123Z,100.00
2022-10-26T05:59:22.821Z,100.00
2022-10-26T06:01:57.775Z,100.00
2022-10-26T06:04:31.696Z,100.00
2022-10-26T06:06:59.717Z,100.00
2022-10-26T06:09:27.555Z,100.00
2022-10-26T06:11:56.889Z,100.00
2022-10-26T06:14:24.808Z,100.00
2022-10-26T06:17:04.649Z,100.00
2022-10-26T06:19:43.905Z,100.00
2022-10-26T06:22:21.273Z,100.00
2022-10-26T06:24:58.700Z,100.00
2022-10-26T06:27:33.410Z,100.00
2022-10-26T06:30:02.738Z,100.00
2022-10-26T06:32:30.833Z,100.00
2022-10-26T06:35:10.961Z,100.00
2022-10-26T06:37:38.598Z,100.00
2022-10-26T06:40:07.792Z,100.00
2022-10-26T06:42:37.099Z,100.00
2022-10-26T06:45:05.473Z,100.00
2022-10-26T06:47:35.937Z,100.00
2022-10-26T06:50:07.421Z,100.00
2022-10-26T06:52:36.825Z,100.00
2022-10-26T06:55:05.352Z,100.00
2022-10-26T06:57:35.726Z,100.00
2022-10-26T07:00:06.807Z,100.00
2022-10-26T07:02:34.369Z,100.00
2022-10-26T07:05:01.833Z,100.00
2022-10-26T07:07:31.026Z,100.00
2022-10-26T07:09:58.412Z,100.00
2022-10-26T07:12:29.591Z,100.00
2022-10-26T07:15:00.620Z,100.00
2022-10-26T07:17:30.436Z,100.00
2022-10-26T07:19:57.902Z,100.00
2022-10-26T07:22:25.777Z,100.00
2022-10-26T07:24:53.232Z,100.00
2022-10-26T07:27:20.793Z,100.00
2022-10-26T07:29:48.164Z,100.00
2022-10-26T07:32:15.527Z,100.00
2022-10-26T07:34:44.244Z,100.00
2022-10-26T07:37:11.595Z,100.00
2022-10-26T07:39:39.019Z,100.00
2022-10-26T07:42:06.472Z,100.00
2022-10-26T07:44:33.827Z,100.00
2022-10-26T07:47:01.252Z,100.00
2022-10-26T07:49:28.608Z,100.00
2022-10-26T07:51:57.329Z,100.00
2022-10-26T07:54:24.724Z,100.00
2022-10-26T07:56:52.713Z,100.00
2022-10-26T07:59:20.174Z,100.00
2022-10-26T08:01:47.839Z,100.00
2022-10-26T08:04:15.697Z,100.00
2022-10-26T08:06:43.102Z,100.00
2022-10-26T08:09:11.898Z,100.00
2022-10-26T08:11:39.375Z,100.00
2022-10-26T08:14:06.784Z,100.00
2022-10-26T08:16:35.059Z,100.00
2022-10-26T08:19:02.602Z,100.00
2022-10-26T08:21:40.206Z,100.00
2022-10-26T08:24:08.433Z,100.00
2022-10-26T08:26:38.256Z,100.00
2022-10-26T08:29:05.641Z,100.00
2022-10-26T08:31:33.629Z,100.00
2022-10-26T08:34:01.706Z,100.00
2022-10-26T08:36:29.518Z,100.00
2022-10-26T08:41:38.137Z,100.00
2022-10-26T08:44:12.346Z,100.00
2022-10-26T08:46:42.270Z,100.00
2022-10-26T08:49:20.121Z,100.00
2022-10-26T08:51:48.652Z,100.00
2022-10-26T08:54:19.625Z,100.00
2022-10-26T08:56:51.133Z,100.00
2022-10-26T08:59:25.277Z,100.00
2022-10-26T09:01:52.721Z,100.00
2022-10-26T09:04:24.959Z,99.74
2022-10-26T09:06:58.137Z,99.64
2022-10-26T09:09:29.889Z,99.45
2022-10-26T09:12:05.361Z,100.00
2022-10-26T09:14:40.485Z,100.00
2022-10-26T09:17:13.131Z,100.00
2022-10-26T09:20:03.063Z,100.00
2022-10-26T09:22:34.857Z,100.00
2022-10-26T09:25:08.011Z,99.37
2022-10-26T09:27:40.210Z,99.71
2022-10-26T09:30:15.280Z,99.61
2022-10-26T09:32:46.261Z,99.32
2022-10-26T09:35:16.430Z,98.70
2022-10-26T09:37:47.511Z,99.62
2022-10-26T09:40:19.760Z,100.00
2022-10-26T09:42:52.722Z,100.00
2022-10-26T09:45:23.660Z,99.01
2022-10-26T09:47:53.408Z,97.16
2022-10-26T09:50:24.614Z,98.05
2022-10-26T09:52:52.304Z,97.54
2022-10-26T09:55:20.768Z,96.46
2022-10-26T09:57:51.916Z,96.22
2022-10-26T10:00:26.706Z,95.65
2022-10-26T10:02:55.311Z,95.71
2022-10-26T10:05:50.188Z,94.99
2022-10-26T10:08:18.998Z,96.05
2022-10-26T10:11:01.474Z,95.57
2022-10-26T10:13:32.060Z,93.85
2022-10-26T10:16:05.608Z,91.50
2022-10-26T10:18:33.703Z,92.89
2022-10-26T10:21:01.908Z,91.11
2022-10-26T10:23:31.980Z,90.10
2022-10-26T10:26:01.190Z,90.78
2022-10-26T10:28:30.444Z,91.01
2022-10-26T10:31:00.269Z,89.87
2022-10-26T10:33:35.934Z,88.32
2022-10-26T10:36:05.664Z,87.28
2022-10-26T10:38:38.633Z,88.33
2022-10-26T10:41:06.899Z,87.90
2022-10-26T10:43:35.607Z,85.46
2022-10-26T10:46:03.005Z,84.12
2022-10-26T10:48:34.655Z,83.06
2022-10-26T10:51:12.201Z,83.24
2022-10-26T10:53:48.287Z,82.08
2022-10-26T10:56:33.060Z,81.58
2022-10-26T10:59:11.993Z,82.00
2022-10-26T11:01:41.452Z,80.94
2022-10-26T11:04:26.508Z,78.38
2022-10-26T11:06:56.418Z,79.03
2022-10-26T11:09:27.919Z,80.65
2022-10-26T11:11:58.145Z,77.48
2022-10-26T11:14:31.348Z,81.01
2022-10-26T11:17:04.493Z,78.68
2022-10-26T11:19:34.971Z,78.06
2022-10-26T11:22:03.922Z,78.58
2022-10-26T11:24:35.138Z,75.84
2022-10-26T11:27:07.753Z,73.81
2022-10-26T11:29:42.494Z,72.01
2022-10-26T11:32:16.675Z,70.74
2022-10-26T11:34:49.043Z,67.27
2022-10-26T11:37:23.001Z,70.41
2022-10-26T11:40:02.865Z,69.96
2022-10-26T11:42:35.757Z,68.71
2022-10-26T11:45:11.946Z,69.17
2022-10-26T11:47:43.760Z,69.37
2022-10-26T11:50:17.684Z,67.03
2022-10-26T11:52:48.708Z,67.03
2022-10-26T11:55:16.478Z,67.20
2022-10-26T11:57:46.460Z,66.54
2022-10-26T12:00:18.621Z,67.79
2022-10-26T12:02:48.887Z,68.43
2022-10-26T12:05:21.925Z,66.40
2022-10-26T12:07:51.723Z,67.70
2022-10-26T12:10:26.064Z,68.49
2022-10-26T12:12:58.317Z,67.27
2022-10-26T12:15:39.989Z,68.33
2022-10-26T12:18:43.182Z,72.03
2022-10-26T12:21:12.516Z,71.43
2022-10-26T12:23:54.762Z,71.99
2022-10-26T12:26:52.417Z,72.83
2022-10-26T12:29:45.402Z,71.56
2022-10-26T12:32:56.414Z,73.22
2022-10-26T12:35:45.272Z,73.65
2022-10-26T12:38:49.467Z,74.17
2022-10-26T12:41:24.923Z,75.92
2022-10-26T12:43:57.188Z,74.51
2022-10-26T12:46:43.180Z,72.29
2022-10-26T12:49:49.632Z,72.35
2022-10-26T12:52:28.753Z,69.43
2022-10-26T12:55:16.161Z,70.64
2022-10-26T12:57:49.375Z,69.15
2022-10-26T13:00:18.322Z,71.99
2022-10-26T13:03:00.363Z,72.47
2022-10-26T13:05:37.126Z,74.07
2022-10-26T13:08:08.062Z,74.19
2022-10-26T13:10:39.389Z,74.30
2022-10-26T13:13:08.281Z,73.52
2022-10-26T13:15:39.522Z,74.50
2022-10-26T13:18:10.944Z,75.82
2022-10-26T13:20:53.510Z,74.93
2022-10-26T13:23:26.781Z,76.27
2022-10-26T13:26:05.879Z,76.29
2022-10-26T13:28:43.664Z,76.13
2022-10-26T13:31:14.503Z,75.94
2022-10-26T13:33:43.176Z,76.43
2022-10-26T13:36:18.325Z,75.82
2022-10-26T13:38:47.965Z,75.05
2022-10-26T13:41:23.120Z,74.53
2022-10-26T13:43:51.376Z,75.31
2022-10-26T13:46:28.740Z,76.08
2022-10-26T13:49:01.530Z,76.54
2022-10-26T13:51:38.377Z,77.04
2022-10-26T13:54:15.994Z,76.99
2022-10-26T13:56:49.593Z,77.25
2022-10-26T14:01:44.669Z,76.11
2022-10-26T14:04:16.049Z,76.64
2022-10-26T14:06:45.226Z,77.44
2022-10-26T14:09:15.537Z,78.08
2022-10-26T14:11:47.941Z,76.75
2022-10-26T14:14:18.200Z,78.84
2022-10-26T14:16:46.490Z,78.16
2022-10-26T14:19:16.365Z,78.83
2022-10-26T14:21:49.698Z,78.07
2022-10-26T14:24:35.819Z,79.35
2022-10-26T14:27:16.004Z,78.73
2022-10-26T14:29:46.916Z,78.86
2022-10-26T14:32:21.536Z,78.18
2022-10-26T14:34:48.970Z,78.02
2022-10-26T14:37:25.733Z,77.82
2022-10-26T14:39:54.641Z,79.99
2022-10-26T14:42:26.525Z,79.75
2022-10-26T14:44:54.009Z,79.56
2022-10-26T14:47:25.206Z,79.10
2022-10-26T14:49:55.000Z,79.19
2022-10-26T14:52:26.549Z,80.44
2022-10-26T14:55:02.547Z,80.47
2022-10-26T14:57:32.338Z,80.06
2022-10-26T15:00:15.370Z,81.86
2022-10-26T15:02:42.970Z,80.58
2022-10-26T15:05:20.459Z,80.75
2022-10-26T15:07:50.540Z,80.05
2022-10-26T15:10:47.841Z,80.05
2022-10-26T15:13:21.933Z,80.40
2022-10-26T15:15:51.016Z,81.08
2022-10-26T15:18:22.674Z,81.62
2022-10-26T15:20:51.190Z,81.66
2022-10-26T15:23:18.778Z,81.85
2022-10-26T15:25:55.184Z,82.30
2022-10-26T15:28:25.082Z,82.67
2022-10-26T15:31:03.624Z,81.42
2022-10-26T15:33:31.830Z,82.75
2022-10-26T15:36:13.788Z,84.51
2022-10-26T15:38:41.265Z,84.71
2022-10-26T15:41:15.917Z,84.13
2022-10-26T15:43:43.604Z,84.54
2022-10-26T15:46:11.070Z,85.32
2022-10-26T15:48:40.354Z,85.08
2022-10-26T15:51:08.284Z,85.38
2022-10-26T15:53:36.777Z,85.89
2022-10-26T15:56:06.517Z,86.00
2022-10-26T15:58:35.228Z,86.16
2022-10-26T16:01:02.713Z,86.95
2022-10-26T16:03:30.137Z,86.84
2022-10-26T16:05:59.684Z,87.21
2022-10-26T16:08:28.694Z,87.26
2022-10-26T16:10:56.218Z,87.73
2022-10-26T16:13:23.633Z,87.81
2022-10-26T16:15:52.317Z,87.54
2022-10-26T16:18:19.887Z,87.71
2022-10-26T16:20:47.455Z,87.88
2022-10-26T16:23:14.892Z,88.27
2022-10-26T16:25:44.316Z,88.82
2022-10-26T16:28:12.878Z,89.22
2022-10-26T16:33:14.893Z,89.64
2022-10-26T16:35:42.277Z,89.89
2022-10-26T16:38:09.767Z,89.59
2022-10-26T16:40:37.169Z,90.30
2022-10-26T16:43:04.584Z,89.58
2022-10-26T16:45:32.005Z,90.39
2022-10-26T16:47:59.469Z,90.06
2022-10-26T16:50:29.290Z,90.38
2022-10-26T16:52:57.369Z,89.26
2022-10-26T16:55:24.774Z,90.02
2022-10-26T16:57:52.487Z,90.70
2022-10-26T17:00:20.203Z,91.15
2022-10-26T17:02:47.647Z,90.50
2022-10-26T17:05:15.514Z,90.18
2022-10-26T17:07:44.294Z,90.88
2022-10-26T17:10:11.661Z,91.67
2022-10-26T17:12:38.983Z,92.39
2022-10-26T17:15:07.437Z,93.17
2022-10-26T17:17:34.813Z,93.05
2022-10-26T17:20:02.218Z,92.45
2022-10-26T17:22:29.662Z,93.01
2022-10-26T17:24:59.160Z,92.41
2022-10-26T17:27:26.652Z,92.76
2022-10-26T17:29:54.014Z,93.38
2022-10-26T17:32:22.244Z,93.06
2022-10-26T17:34:49.582Z,93.96
2022-10-26T17:37:17.034Z,93.98
2022-10-26T17:39:44.486Z,93.86
2022-10-26T17:42:14.556Z,94.82
2022-10-26T17:44:41.964Z,95.28
2022-10-26T17:47:09.785Z,94.19
2022-10-26T17:49:37.154Z,94.44
2022-10-26T17:52:05.819Z,93.90
2022-10-26T17:54:33.407Z,94.37
2022-10-26T17:57:01.000Z,94.35
2022-10-26T17:59:30.083Z,94.59
2022-10-26T18:01:57.751Z,94.20
2022-10-26T18:04:25.200Z,95.14
2022-10-26T18:06:52.622Z,94.42
2022-10-26T18:09:20.067Z,94.93
2022-10-26T18:11:49.553Z,95.12
2022-10-26T18:14:22.543Z,95.33
2022-10-26T18:16:51.252Z,95.62
2022-10-26T18:19:18.631Z,94.67
2022-10-26T18:21:46.004Z,95.24
2022-10-26T18:24:13.432Z,95.22
2022-10-26T18:26:40.977Z,95.02
2022-10-26T18:29:08.366Z,95.28
2022-10-26T18:31:35.922Z,94.99
2022-10-26T18:34:06.288Z,94.99
2022-10-26T18:36:33.962Z,94.78
2022-10-26T18:39:01.776Z,95.00
2022-10-26T18:41:29.612Z,96.05
2022-10-26T18:43:58.681Z,96.13
2022-10-26T18:46:28.025Z,97.00
2022-10-26T18:48:56.095Z,97.21
2022-10-26T18:51:28.617Z,97.36
2022-10-26T18:53:57.442Z,97.75
2022-10-26T18:56:26.451Z,98.08
2022-10-26T18:58:58.464Z,98.16
2022-10-26T19:01:29.034Z,99.04
2022-10-26T19:03:59.224Z,98.02
2022-10-26T19:06:33.497Z,98.25
2022-10-26T19:09:03.280Z,97.80
2022-10-26T19:11:33.027Z,97.02
2022-10-26T19:14:02.399Z,95.73
2022-10-26T19:16:45.144Z,95.80
2022-10-26T19:19:17.443Z,95.63
2022-10-26T19:21:49.126Z,94.56
2022-10-26T19:24:19.785Z,94.77
2022-10-26T19:26:50.774Z,95.27
2022-10-26T19:29:20.930Z,95.21
2022-10-26T19:31:52.583Z,95.32
2022-10-26T19:34:21.455Z,95.75
2022-10-26T19:36:51.761Z,96.35
2022-10-26T19:39:20.913Z,96.28
2022-10-26T19:41:49.093Z,96.37
2022-10-26T19:44:19.715Z,97.46
2022-10-26T19:46:48.966Z,98.09
2022-10-26T19:49:18.188Z,98.10
2022-10-26T19:51:47.782Z,97.21
2022-10-26T19:54:16.678Z,95.85
2022-10-26T19:56:46.318Z,95.91
2022-10-26T19:59:13.945Z,97.46
2022-10-26T20:01:41.460Z,97.84
2022-10-26T20:04:08.844Z,98.44
2022-10-26T20:06:36.293Z,99.00
2022-10-26T20:09:04.667Z,98.96
2022-10-26T20:11:36.321Z,98.31
2022-10-26T20:14:06.346Z,98.41
2022-10-26T20:16:33.717Z,98.33
2022-10-26T20:19:01.602Z,100.00
2022-10-26T20:21:29.129Z,99.40
2022-10-26T20:23:56.517Z,99.79
2022-10-26T20:26:27.452Z,99.26
2022-10-26T20:28:57.355Z,99.38
2022-10-26T20:31:24.966Z,99.34
2022-10-26T20:33:53.100Z,99.75
2022-10-26T20:36:22.578Z,98.79
2022-10-26T20:38:51.819Z,99.03
2022-10-26T20:41:19.805Z,98.35
2022-10-26T20:43:47.851Z,98.38
2022-10-26T20:46:23.077Z,98.96
2022-10-26T20:48:51.173Z,99.38
2022-10-26T20:51:23.676Z,99.66
2022-10-26T20:54:00.338Z,99.20
2022-10-26T20:56:28.129Z,99.13
2022-10-26T20:58:57.115Z,99.22
2022-10-26T21:01:27.969Z,99.08
2022-10-26T21:03:56.271Z,98.62
2022-10-26T21:06:24.053Z,98.17
2022-10-26T21:08:52.264Z,97.45
2022-10-26T21:11:20.694Z,97.95
2022-10-26T21:13:49.649Z,97.65
2022-10-26T21:16:17.847Z,97.91
2022-10-26T21:18:46.630Z,98.15
2022-10-26T21:21:14.018Z,97.62
2022-10-26T21:23:41.955Z,98.08
2022-10-26T21:26:09.992Z,98.05
2022-10-26T21:28:38.923Z,98.20
2022-10-26T21:31:07.889Z,97.13
2022-10-26T21:33:35.269Z,95.79
2022-10-26T21:36:05.895Z,95.02
2022-10-26T21:38:33.922Z,94.18
2022-10-26T21:41:05.242Z,94.01
2022-10-26T21:43:32.854Z,93.97
2022-10-26T21:46:03.510Z,93.89
2022-10-26T21:48:32.150Z,94.85
2022-10-26T21:51:01.684Z,94.86
2022-10-26T21:53:30.597Z,95.48
2022-10-26T21:56:01.613Z,95.72
2022-10-26T21:58:29.817Z,94.96
2022-10-26T22:01:05.019Z,94.92
2022-10-26T22:03:32.598Z,95.36
2022-10-26T22:05:59.977Z,95.42
2022-10-26T22:08:27.455Z,94.85
2022-10-26T22:10:56.182Z,94.18
2022-10-26T22:13:24.077Z,93.28
2022-10-26T22:16:01.450Z,94.45
2022-10-26T22:18:28.868Z,94.11
2022-10-26T22:20:57.701Z,95.83
2022-10-26T22:23:25.090Z,94.74
2022-10-26T22:25:52.445Z,95.89
2022-10-26T22:28:21.149Z,96.85
2022-10-26T22:30:48.701Z,96.97
2022-10-26T22:33:16.109Z,97.61
2022-10-26T22:35:43.545Z,97.32
2022-10-26T22:38:10.877Z,96.46
2022-10-26T22:40:38.190Z,96.01
2022-10-26T22:43:05.568Z,96.52
2022-10-26T22:45:34.265Z,97.30
2022-10-26T22:48:01.639Z,98.32
2022-10-26T22:50:29.042Z,97.07
2022-10-26T22:52:56.358Z,97.61
2022-10-26T22:55:23.731Z,97.10
2022-10-26T22:57:51.280Z,96.63
2022-10-26T23:00:19.231Z,96.60
2022-10-26T23:02:47.908Z,97.47
2022-10-26T23:05:15.467Z,96.85
2022-10-26T23:07:42.792Z,96.89
2022-10-26T23:10:11.127Z,96.72
2022-10-26T23:12:38.841Z,97.30
2022-10-26T23:15:06.781Z,97.26
2022-10-26T23:17:34.149Z,98.15
2022-10-26T23:20:02.814Z,98.02
2022-10-26T23:22:30.129Z,98.27
2022-10-26T23:24:57.488Z,97.16
2022-10-26T23:27:24.859Z,96.82
2022-10-26T23:29:52.236Z,96.08
2022-10-26T23:32:19.804Z,95.82
2022-10-26T23:34:47.344Z,95.72
2022-10-26T23:37:19.305Z,95.34
2022-10-26T23:39:46.656Z,94.38
2022-10-26T23:42:14.024Z,94.26
2022-10-26T23:44:41.687Z,93.60
2022-10-26T23:47:09.180Z,93.47
2022-10-26T23:49:36.516Z,92.63
2022-10-26T23:52:03.872Z,92.94
2022-10-26T23:54:32.537Z,92.96
2022-10-26T23:56:59.859Z,93.15
2022-10-26T23:59:27.234Z,92.57
